METAR Data
IDs: Format: Raw Decoded Include TAF

Data at: 0527 UTC 26 May 2022

EDDN 260520Z AUTO 20006KT 180V240 CAVOK 15/09 Q1021 NOSIG